createdAt,value
2023-11-01T00:01:44.682Z,12.20
2023-11-01T00:06:50.067Z,12.10
2023-11-01T00:09:20.382Z,12.10
2023-11-01T00:11:47.359Z,12.10
2023-11-01T00:14:17.746Z,12.00
2023-11-01T00:16:45.079Z,12.00
2023-11-01T00:19:13.122Z,12.00
2023-11-01T00:21:41.337Z,12.00
2023-11-01T00:24:08.581Z,12.00
2023-11-01T00:26:38.728Z,12.00
2023-11-01T00:29:05.869Z,11.90
2023-11-01T00:31:35.946Z,12.00
2023-11-01T00:34:06.126Z,11.90
2023-11-01T00:36:36.312Z,11.90
2023-11-01T00:39:04.407Z,11.90
2023-11-01T00:41:33.426Z,11.90
2023-11-01T00:44:03.648Z,11.90
2023-11-01T00:46:31.663Z,11.90
2023-11-01T00:49:00.696Z,11.90
2023-11-01T00:51:29.713Z,11.90
2023-11-01T00:53:58.706Z,11.80
2023-11-01T00:56:28.974Z,11.80
2023-11-01T00:58:58.025Z,11.80
2023-11-01T01:01:28.167Z,11.80
2023-11-01T01:04:00.143Z,11.70
2023-11-01T01:06:30.307Z,11.70
2023-11-01T01:08:58.338Z,11.70
2023-11-01T01:11:28.664Z,11.70
2023-11-01T01:13:57.680Z,11.70
2023-11-01T01:16:26.676Z,11.70
2023-11-01T01:18:55.700Z,11.70
2023-11-01T01:21:24.679Z,11.70
2023-11-01T01:23:52.676Z,11.70
2023-11-01T01:26:22.837Z,11.70
2023-11-01T01:28:52.972Z,11.70
2023-11-01T01:31:20.982Z,11.70
2023-11-01T01:33:51.113Z,11.70
2023-11-01T01:36:20.158Z,11.70
2023-11-01T01:38:50.190Z,11.70
2023-11-01T01:41:20.578Z,11.70
2023-11-01T01:43:48.569Z,11.70
2023-11-01T01:46:19.158Z,11.70
2023-11-01T01:48:50.122Z,11.80
2023-11-01T01:51:18.290Z,11.80
2023-11-01T01:53:52.902Z,11.90
2023-11-01T01:56:23.434Z,11.90
2023-11-01T01:58:52.367Z,11.90
2023-11-01T02:01:35.103Z,12.00
2023-11-01T02:04:10.701Z,12.10
2023-11-01T02:06:41.396Z,12.20
2023-11-01T02:09:17.006Z,12.20
2023-11-01T02:11:46.153Z,12.20
2023-11-01T02:14:16.350Z,12.30
2023-11-01T02:16:46.587Z,12.30
2023-11-01T02:19:17.341Z,12.40
2023-11-01T02:21:47.405Z,12.40
2023-11-01T02:24:14.645Z,12.50
2023-11-01T02:26:41.915Z,12.40
2023-11-01T02:29:10.780Z,12.50
2023-11-01T02:31:42.957Z,12.50
2023-11-01T02:34:12.047Z,12.60
2023-11-01T02:36:42.083Z,12.60
2023-11-01T02:39:12.162Z,12.60
2023-11-01T02:41:40.542Z,12.60
2023-11-01T02:44:15.931Z,12.70
2023-11-01T02:46:43.182Z,12.70
2023-11-01T02:49:16.345Z,12.70
2023-11-01T02:51:46.417Z,12.70
2023-11-01T02:54:16.597Z,12.70
2023-11-01T02:56:44.782Z,12.70
2023-11-01T02:59:14.986Z,12.80
2023-11-01T03:01:45.394Z,12.80
2023-11-01T03:04:14.736Z,12.80
2023-11-01T03:06:44.664Z,12.80
2023-11-01T03:09:17.890Z,12.90
2023-11-01T03:11:44.931Z,12.90
2023-11-01T03:14:13.111Z,12.90
2023-11-01T03:16:43.165Z,12.90
2023-11-01T03:19:11.007Z,13.00
2023-11-01T03:21:42.753Z,13.00
2023-11-01T03:24:13.331Z,13.00
2023-11-01T03:26:46.829Z,13.00
2023-11-01T03:29:14.986Z,13.00
2023-11-01T03:31:42.019Z,13.00
2023-11-01T03:34:09.052Z,13.00
2023-11-01T03:36:36.058Z,13.00
2023-11-01T03:39:03.284Z,13.00
2023-11-01T03:41:30.476Z,13.10
2023-11-01T03:43:57.493Z,13.10
2023-11-01T03:46:24.546Z,13.10
2023-11-01T03:48:51.689Z,13.10
2023-11-01T03:51:19.653Z,13.10
2023-11-01T03:53:49.740Z,13.10
2023-11-01T03:56:17.059Z,13.10
2023-11-01T03:58:47.316Z,13.10
2023-11-01T04:01:17.510Z,13.10
2023-11-01T04:03:47.790Z,13.10
2023-11-01T04:06:15.980Z,13.10
2023-11-01T04:08:43.995Z,13.10
2023-11-01T04:11:12.010Z,13.10
2023-11-01T04:13:38.918Z,13.10
2023-11-01T04:16:06.616Z,13.00
2023-11-01T04:18:36.837Z,13.00
2023-11-01T04:21:05.195Z,13.00
2023-11-01T04:23:33.256Z,13.00
2023-11-01T04:26:03.309Z,13.00
2023-11-01T04:28:30.366Z,13.00
2023-11-01T04:31:00.320Z,13.00
2023-11-01T04:33:27.684Z,13.00
2023-11-01T04:35:55.702Z,13.00
2023-11-01T04:38:22.760Z,13.00
2023-11-01T04:40:52.405Z,13.00
2023-11-01T04:43:20.369Z,13.00
2023-11-01T04:45:49.515Z,13.00
2023-11-01T04:48:17.638Z,13.00
2023-11-01T04:50:50.030Z,13.00
2023-11-01T04:53:19.075Z,13.00
2023-11-01T04:55:48.376Z,13.00
2023-11-01T04:58:15.669Z,13.00
2023-11-01T05:00:45.818Z,13.00
2023-11-01T05:03:12.845Z,13.00
2023-11-01T05:05:40.944Z,13.00
2023-11-01T05:08:11.987Z,13.00
2023-11-01T05:10:39.523Z,13.00
2023-11-01T05:13:07.295Z,13.00
2023-11-01T05:15:38.055Z,12.90
2023-11-01T05:18:08.293Z,13.00
2023-11-01T05:20:36.345Z,13.00
2023-11-01T05:23:09.427Z,13.00
2023-11-01T05:25:39.413Z,13.00
2023-11-01T05:28:10.192Z,12.90
2023-11-01T05:30:40.290Z,12.90
2023-11-01T05:33:10.506Z,12.90
2023-11-01T05:35:42.813Z,12.90
2023-11-01T05:38:11.077Z,12.90
2023-11-01T05:40:40.508Z,12.90
2023-11-01T05:43:08.569Z,13.00
2023-11-01T05:45:38.616Z,12.90
2023-11-01T05:48:10.266Z,13.00
2023-11-01T05:50:42.697Z,13.00
2023-11-01T05:53:12.347Z,12.90
2023-11-01T05:55:54.231Z,12.90
2023-11-01T05:58:30.074Z,12.90
2023-11-01T06:00:58.284Z,12.90
2023-11-01T06:03:27.200Z,13.00
2023-11-01T06:05:59.841Z,13.00
2023-11-01T06:08:30.288Z,13.00
2023-11-01T06:10:58.368Z,13.00
2023-11-01T06:13:25.360Z,13.00
2023-11-01T06:15:53.020Z,13.00
2023-11-01T06:18:20.661Z,13.00
2023-11-01T06:20:47.729Z,13.00
2023-11-01T06:23:14.712Z,13.00
2023-11-01T06:25:42.746Z,13.00
2023-11-01T06:28:10.054Z,13.00
2023-11-01T06:30:38.141Z,13.00
2023-11-01T06:33:11.488Z,13.00
2023-11-01T06:35:39.869Z,13.00
2023-11-01T06:38:09.928Z,13.00
2023-11-01T06:40:39.038Z,13.00
2023-11-01T06:43:09.937Z,13.00
2023-11-01T06:46:06.135Z,13.00
2023-11-01T06:48:36.211Z,13.10
2023-11-01T06:51:03.360Z,13.00
2023-11-01T06:53:30.427Z,13.00
2023-11-01T06:55:58.537Z,13.00
2023-11-01T06:58:27.634Z,13.00
2023-11-01T07:00:54.701Z,13.00
2023-11-01T07:03:21.886Z,13.00
2023-11-01T07:05:52.105Z,13.00
2023-11-01T07:08:20.297Z,13.00
2023-11-01T07:10:47.309Z,13.00
2023-11-01T07:13:14.250Z,13.00
2023-11-01T07:15:42.277Z,13.00
2023-11-01T07:18:10.420Z,13.10
2023-11-01T07:20:39.977Z,13.10
2023-11-01T07:23:07.088Z,13.10
2023-11-01T07:25:34.108Z,13.20
2023-11-01T07:28:01.458Z,13.20
2023-11-01T07:30:28.651Z,13.30
2023-11-01T07:32:58.168Z,13.30
2023-11-01T07:35:25.327Z,13.40
2023-11-01T07:37:52.353Z,13.40
2023-11-01T07:40:19.692Z,13.40
2023-11-01T07:42:47.758Z,13.50
2023-11-01T07:45:14.873Z,13.50
2023-11-01T07:47:43.146Z,13.50
2023-11-01T07:50:13.633Z,13.50
2023-11-01T07:52:44.612Z,13.50
2023-11-01T07:55:12.160Z,13.50
2023-11-01T07:57:42.542Z,13.50
2023-11-01T08:00:14.598Z,13.50
2023-11-01T08:02:43.693Z,13.60
2023-11-01T08:05:10.891Z,13.60
2023-11-01T08:07:38.936Z,13.60
2023-11-01T08:10:06.571Z,13.60
2023-11-01T08:12:35.542Z,13.60
2023-11-01T08:15:03.799Z,13.70
2023-11-01T08:17:32.474Z,13.70
2023-11-01T08:20:02.965Z,13.70
2023-11-01T08:22:31.286Z,13.70
2023-11-01T08:25:00.366Z,13.80
2023-11-01T08:27:30.585Z,13.80
2023-11-01T08:29:58.647Z,13.80
2023-11-01T08:32:28.764Z,13.80
2023-11-01T08:34:59.141Z,13.80
2023-11-01T08:37:26.727Z,13.80
2023-11-01T08:39:53.836Z,13.90
2023-11-01T08:42:23.944Z,14.10
2023-11-01T08:44:52.333Z,14.30
2023-11-01T08:47:40.131Z,14.50
2023-11-01T08:50:13.836Z,14.40
2023-11-01T08:52:45.005Z,14.40
2023-11-01T08:55:15.600Z,14.50
2023-11-01T08:57:48.044Z,14.40
2023-11-01T09:00:18.619Z,14.40
2023-11-01T09:02:48.709Z,14.40
2023-11-01T09:05:17.229Z,14.60
2023-11-01T09:07:50.201Z,15.00
2023-11-01T09:10:19.731Z,15.80
2023-11-01T09:12:49.963Z,16.50
2023-11-01T09:15:20.088Z,16.60
2023-11-01T09:17:50.498Z,16.40
2023-11-01T09:20:17.764Z,16.20
2023-11-01T09:22:47.756Z,15.80
2023-11-01T09:25:15.795Z,15.60
2023-11-01T09:27:44.259Z,15.50
2023-11-01T09:30:13.462Z,15.50
2023-11-01T09:32:42.633Z,15.40
2023-11-01T09:35:15.529Z,15.20
2023-11-01T09:37:44.597Z,15.10
2023-11-01T09:40:14.869Z,14.90
2023-11-01T09:42:43.662Z,14.70
2023-11-01T09:45:13.539Z,14.60
2023-11-01T09:47:42.441Z,14.50
2023-11-01T09:50:14.972Z,14.50
2023-11-01T09:52:42.270Z,14.50
2023-11-01T09:55:09.784Z,14.50
2023-11-01T09:57:40.351Z,14.60
2023-11-01T10:00:08.829Z,14.70
2023-11-01T10:02:39.111Z,14.80
2023-11-01T10:05:12.415Z,14.90
2023-11-01T10:07:40.423Z,14.90
2023-11-01T10:10:08.103Z,15.10
2023-11-01T10:12:35.157Z,15.10
2023-11-01T10:15:04.611Z,15.30
2023-11-01T10:17:33.696Z,15.70
2023-11-01T10:20:04.391Z,15.90
2023-11-01T10:22:33.871Z,16.20
2023-11-01T10:25:04.238Z,16.60
2023-11-01T10:27:39.925Z,16.80
2023-11-01T10:30:09.363Z,16.90
2023-11-01T10:32:36.554Z,17.20
2023-11-01T10:35:16.925Z,17.40
2023-11-01T10:37:47.641Z,17.40
2023-11-01T10:40:17.099Z,17.40
2023-11-01T10:42:46.057Z,17.20
2023-11-01T10:45:19.750Z,17.10
2023-11-01T10:47:53.896Z,16.80
2023-11-01T10:50:21.562Z,16.60
2023-11-01T10:52:52.036Z,16.30
2023-11-01T10:55:25.652Z,16.10
2023-11-01T10:57:56.632Z,15.90
2023-11-01T11:00:45.965Z,15.70
2023-11-01T11:03:35.180Z,15.60
2023-11-01T11:06:09.832Z,15.50
2023-11-01T11:08:39.939Z,15.40
2023-11-01T11:11:19.182Z,15.30
2023-11-01T11:13:52.499Z,15.30
2023-11-01T11:16:22.526Z,15.40
2023-11-01T11:18:54.026Z,15.40
2023-11-01T11:21:47.160Z,15.60
2023-11-01T11:24:36.421Z,15.50
2023-11-01T11:27:50.641Z,15.50
2023-11-01T11:31:17.218Z,15.50
2023-11-01T11:33:49.365Z,15.50
2023-11-01T11:36:25.261Z,15.60
2023-11-01T11:39:12.137Z,15.60
2023-11-01T11:41:39.114Z,15.60
2023-11-01T11:44:12.181Z,15.60
2023-11-01T11:46:56.335Z,15.60
2023-11-01T11:49:25.884Z,15.70
2023-11-01T11:51:54.917Z,15.70
2023-11-01T11:54:24.162Z,15.60
2023-11-01T11:57:18.864Z,15.70
2023-11-01T11:59:49.098Z,15.70
2023-11-01T12:02:17.360Z,15.70
2023-11-01T12:04:51.117Z,15.70
2023-11-01T12:07:22.541Z,15.70
2023-11-01T12:09:51.870Z,15.60
2023-11-01T12:12:27.973Z,15.60
2023-11-01T12:15:02.603Z,15.70
2023-11-01T12:17:33.028Z,15.70
2023-11-01T12:20:03.593Z,15.60
2023-11-01T12:22:45.488Z,15.60
2023-11-01T12:25:23.663Z,15.50
2023-11-01T12:27:53.740Z,15.40
2023-11-01T12:30:22.584Z,15.30
2023-11-01T12:32:51.699Z,15.30
2023-11-01T12:35:25.288Z,15.20
2023-11-01T12:37:55.436Z,15.10
2023-11-01T12:40:27.296Z,15.10
2023-11-01T12:43:08.779Z,15.00
2023-11-01T12:45:38.825Z,15.00
2023-11-01T12:48:07.898Z,14.90
2023-11-01T12:50:36.772Z,14.80
2023-11-01T12:53:04.903Z,14.80
2023-11-01T12:55:35.130Z,14.70
2023-11-01T12:58:04.003Z,14.70
2023-11-01T13:00:32.831Z,14.60
2023-11-01T13:03:04.922Z,14.60
2023-11-01T13:05:35.148Z,14.50
2023-11-01T13:08:04.008Z,14.40
2023-11-01T13:10:32.420Z,14.40
2023-11-01T13:13:03.194Z,14.40
2023-11-01T13:15:31.588Z,14.30
2023-11-01T13:17:58.812Z,14.30
2023-11-01T13:20:25.967Z,14.30
2023-11-01T13:22:54.929Z,14.30
2023-11-01T13:25:24.174Z,14.30
2023-11-01T13:27:52.183Z,14.30
2023-11-01T13:30:20.250Z,14.30
2023-11-01T13:32:50.400Z,14.30
2023-11-01T13:35:18.527Z,14.30
2023-11-01T13:37:46.552Z,14.30
2023-11-01T13:40:19.863Z,14.30
2023-11-01T13:42:50.634Z,14.30
2023-11-01T13:45:18.890Z,14.30
2023-11-01T13:47:46.051Z,14.30
2023-11-01T13:50:14.166Z,14.20
2023-11-01T13:52:42.882Z,14.20
2023-11-01T13:55:10.917Z,14.20
2023-11-01T13:57:38.265Z,14.20
2023-11-01T14:00:07.135Z,14.20
2023-11-01T14:02:35.283Z,14.20
2023-11-01T14:05:02.502Z,14.30
2023-11-01T14:07:29.469Z,14.30
2023-11-01T14:09:59.876Z,14.40
2023-11-01T14:12:26.831Z,14.40
2023-11-01T14:14:54.865Z,14.40
2023-11-01T14:17:24.986Z,14.40
2023-11-01T14:19:55.215Z,14.40
2023-11-01T14:22:22.155Z,14.40
2023-11-01T14:24:52.852Z,14.40
2023-11-01T14:27:20.922Z,14.50
2023-11-01T14:29:48.134Z,14.60
2023-11-01T14:32:21.287Z,14.70
2023-11-01T14:34:48.333Z,14.80
2023-11-01T14:37:18.568Z,14.90
2023-11-01T14:39:45.670Z,14.90
2023-11-01T14:42:16.481Z,14.90
2023-11-01T14:44:49.652Z,14.80
2023-11-01T14:47:19.667Z,14.70
2023-11-01T14:49:49.904Z,14.70
2023-11-01T14:52:17.959Z,14.60
2023-11-01T14:54:48.147Z,14.50
2023-11-01T14:57:17.156Z,14.50
2023-11-01T14:59:46.302Z,14.50
2023-11-01T15:02:15.036Z,14.60
2023-11-01T15:04:45.827Z,14.70
2023-11-01T15:07:14.928Z,14.80
2023-11-01T15:09:42.031Z,14.90
2023-11-01T15:12:23.883Z,14.90
2023-11-01T15:14:51.236Z,14.80
2023-11-01T15:17:18.380Z,14.80
2023-11-01T15:19:49.036Z,14.70
2023-11-01T15:22:17.400Z,14.60
2023-11-01T15:24:56.616Z,14.50
2023-11-01T15:27:27.113Z,14.40
2023-11-01T15:29:54.258Z,14.30
2023-11-01T15:32:21.395Z,14.20
2023-11-01T15:34:50.623Z,14.20
2023-11-01T15:37:21.538Z,14.20
2023-11-01T15:39:50.949Z,14.20
2023-11-01T15:42:33.420Z,14.10
2023-11-01T15:45:02.310Z,14.10
2023-11-01T15:47:31.551Z,14.00
2023-11-01T15:49:58.693Z,13.90
2023-11-01T15:52:26.762Z,13.90
2023-11-01T15:54:55.711Z,13.70
2023-11-01T15:57:25.078Z,13.60
2023-11-01T15:59:59.122Z,13.50
2023-11-01T16:02:30.343Z,13.40
2023-11-01T16:05:05.037Z,13.40
2023-11-01T16:07:35.250Z,13.30
2023-11-01T16:10:06.333Z,13.20
2023-11-01T16:12:37.459Z,13.10
2023-11-01T16:15:05.369Z,13.10
2023-11-01T16:17:34.723Z,13.00
2023-11-01T16:20:04.529Z,13.00
2023-11-01T16:22:34.729Z,13.00
2023-11-01T16:25:06.320Z,12.90
2023-11-01T16:27:34.341Z,12.90
2023-11-01T16:30:02.637Z,12.80
2023-11-01T16:32:32.382Z,12.80
2023-11-01T16:35:00.410Z,12.70
2023-11-01T16:37:29.714Z,12.60
2023-11-01T16:40:00.371Z,12.60
2023-11-01T16:42:28.409Z,12.50
2023-11-01T16:44:56.231Z,12.40
2023-11-01T16:47:24.402Z,12.40
2023-11-01T16:49:51.595Z,12.30
2023-11-01T16:52:18.762Z,12.30
2023-11-01T16:54:49.269Z,12.30
2023-11-01T16:57:16.344Z,12.30
2023-11-01T16:59:44.041Z,12.30
2023-11-01T17:02:14.412Z,12.30
2023-11-01T17:04:41.480Z,12.20
2023-11-01T17:07:11.793Z,12.20
2023-11-01T17:09:43.438Z,12.20
2023-11-01T17:12:15.048Z,12.20
2023-11-01T17:14:43.591Z,12.20
2023-11-01T17:17:10.598Z,12.10
2023-11-01T17:19:38.979Z,12.10
2023-11-01T17:22:17.226Z,12.10
2023-11-01T17:24:46.372Z,12.00
2023-11-01T17:27:13.437Z,12.00
2023-11-01T17:29:40.563Z,12.00
2023-11-01T17:32:07.681Z,12.00
2023-11-01T17:34:36.113Z,11.90
2023-11-01T17:37:05.147Z,11.90
2023-11-01T17:39:41.974Z,11.90
2023-11-01T17:42:12.677Z,11.80
2023-11-01T17:44:45.465Z,11.80
2023-11-01T17:47:29.322Z,11.80
2023-11-01T17:50:05.974Z,11.70
2023-11-01T17:52:42.718Z,11.70
2023-11-01T17:55:13.117Z,11.60
2023-11-01T17:57:40.977Z,11.60
2023-11-01T18:00:09.183Z,11.50
2023-11-01T18:03:20.357Z,11.50
2023-11-01T18:05:49.178Z,11.50
2023-11-01T18:08:24.214Z,11.50
2023-11-01T18:10:55.372Z,11.40
2023-11-01T18:13:28.094Z,11.40
2023-11-01T18:16:21.405Z,11.40
2023-11-01T18:18:57.795Z,11.40
2023-11-01T18:21:35.131Z,11.40
2023-11-01T18:24:04.902Z,11.30
2023-11-01T18:26:32.370Z,11.30
2023-11-01T18:29:02.342Z,11.30
2023-11-01T18:31:38.200Z,11.30
2023-11-01T18:34:13.659Z,11.30
2023-11-01T18:36:45.041Z,11.30
2023-11-01T18:39:12.753Z,11.30
2023-11-01T18:41:45.102Z,11.30
2023-11-01T18:44:29.385Z,11.20
2023-11-01T18:47:02.839Z,11.20
2023-11-01T18:49:57.160Z,11.30
2023-11-01T18:52:26.890Z,11.20
2023-11-01T18:54:54.449Z,11.20
2023-11-01T18:57:37.994Z,11.20
2023-11-01T19:00:12.667Z,11.20
2023-11-01T19:02:53.773Z,11.20
2023-11-01T19:05:24.045Z,11.20
2023-11-01T19:07:54.308Z,11.20
2023-11-01T19:10:30.963Z,11.20
2023-11-01T19:12:58.025Z,11.10
2023-11-01T19:15:40.137Z,11.10
2023-11-01T19:18:16.424Z,11.10
2023-11-01T19:20:46.650Z,11.10
2023-11-01T19:23:18.549Z,11.10
2023-11-01T19:25:51.702Z,11.00
2023-11-01T19:28:18.693Z,11.00
2023-11-01T19:30:45.765Z,11.00
2023-11-01T19:33:22.278Z,11.00
2023-11-01T19:36:01.983Z,11.00
2023-11-01T19:38:34.863Z,11.00
2023-11-01T19:41:02.129Z,10.90
2023-11-01T19:43:29.087Z,11.00
2023-11-01T19:45:56.481Z,10.90
2023-11-01T19:48:29.792Z,11.00
2023-11-01T19:51:01.373Z,11.00
2023-11-01T19:53:29.528Z,11.00
2023-11-01T19:55:57.110Z,10.90
2023-11-01T19:58:24.205Z,10.90
2023-11-01T20:00:52.398Z,10.90
2023-11-01T20:03:21.669Z,10.80
2023-11-01T20:05:50.683Z,10.80
2023-11-01T20:08:18.197Z,10.70
2023-11-01T20:10:45.461Z,10.70
2023-11-01T20:13:12.511Z,10.60
2023-11-01T20:15:42.603Z,10.60
2023-11-01T20:18:12.886Z,10.60
2023-11-01T20:20:40.996Z,10.60
2023-11-01T20:23:09.009Z,10.60
2023-11-01T20:25:39.133Z,10.50
2023-11-01T20:28:23.001Z,10.50
2023-11-01T20:30:52.390Z,10.50
2023-11-01T20:33:19.582Z,10.50
2023-11-01T20:35:49.791Z,10.40
2023-11-01T20:38:19.167Z,10.40
2023-11-01T20:40:49.332Z,10.40
2023-11-01T20:43:19.599Z,10.40
2023-11-01T20:45:49.705Z,10.40
2023-11-01T20:48:18.072Z,10.40
2023-11-01T20:50:48.733Z,10.30
2023-11-01T20:53:15.884Z,10.30
2023-11-01T20:55:42.964Z,10.30
2023-11-01T20:58:11.006Z,10.30
2023-11-01T21:00:41.212Z,10.20
2023-11-01T21:03:11.508Z,10.20
2023-11-01T21:05:42.065Z,10.20
2023-11-01T21:08:12.229Z,10.20
2023-11-01T21:10:42.766Z,10.20
2023-11-01T21:13:11.231Z,10.10
2023-11-01T21:15:41.092Z,10.10
2023-11-01T21:18:13.089Z,10.10
2023-11-01T21:20:40.326Z,10.10
2023-11-01T21:23:09.499Z,10.10
2023-11-01T21:25:37.856Z,10.10
2023-11-01T21:28:08.232Z,10.10
2023-11-01T21:30:35.830Z,10.10
2023-11-01T21:33:03.451Z,10.10
2023-11-01T21:35:37.074Z,10.10
2023-11-01T21:38:08.509Z,10.10
2023-11-01T21:40:39.016Z,10.10
2023-11-01T21:43:09.773Z,10.10
2023-11-01T21:45:56.016Z,10.10
2023-11-01T21:48:29.124Z,10.10
2023-11-01T21:51:02.015Z,10.10
2023-11-01T21:53:38.182Z,10.20
2023-11-01T21:56:06.173Z,10.20
2023-11-01T21:58:33.766Z,10.20
2023-11-01T22:01:05.815Z,10.20
2023-11-01T22:03:46.073Z,10.20
2023-11-01T22:06:17.321Z,10.20
2023-11-01T22:09:00.005Z,10.30
2023-11-01T22:11:31.528Z,10.30
2023-11-01T22:14:00.320Z,10.40
2023-11-01T22:16:35.248Z,10.40
2023-11-01T22:19:14.228Z,10.40
2023-11-01T22:21:43.502Z,10.50
2023-11-01T22:24:11.725Z,10.50
2023-11-01T22:26:42.717Z,10.50
2023-11-01T22:29:12.702Z,10.60
2023-11-01T22:31:53.150Z,10.60
2023-11-01T22:34:30.812Z,10.70
2023-11-01T22:37:03.135Z,10.70
2023-11-01T22:39:45.609Z,10.70
2023-11-01T22:42:19.028Z,10.70
2023-11-01T22:44:46.307Z,10.70
2023-11-01T22:47:15.643Z,10.70
2023-11-01T22:49:44.905Z,10.70
2023-11-01T22:52:17.141Z,10.80
2023-11-01T22:54:46.314Z,10.80
2023-11-01T22:57:16.406Z,10.80
2023-11-01T22:59:44.719Z,10.90
2023-11-01T23:02:16.565Z,10.90
2023-11-01T23:04:48.226Z,10.90
2023-11-01T23:07:18.253Z,10.90
2023-11-01T23:09:46.974Z,10.90
2023-11-01T23:12:17.181Z,10.90
2023-11-01T23:14:45.171Z,10.90
2023-11-01T23:17:15.297Z,10.90
2023-11-01T23:19:43.381Z,10.90
2023-11-01T23:22:13.455Z,10.90
2023-11-01T23:24:45.230Z,10.90
2023-11-01T23:27:15.448Z,10.90
2023-11-01T23:29:47.341Z,11.00
2023-11-01T23:32:22.152Z,11.00
2023-11-01T23:34:52.537Z,11.00
2023-11-01T23:37:39.180Z,11.00
2023-11-01T23:40:33.320Z,11.00
2023-11-01T23:43:05.024Z,11.00
2023-11-01T23:45:36.881Z,11.10
2023-11-01T23:48:26.880Z,11.00
2023-11-01T23:50:54.013Z,11.10
2023-11-01T23:53:25.630Z,11.10
2023-11-01T23:55:54.047Z,11.10
2023-11-01T23:58:33.571Z,11.10
